sensor_id;sensor_type;location;lat;lon;timestamp;P1;durP1;ratioP1;P2;durP2;ratioP2
78167;SDS011;67410;42.698;23.378;2024-01-06T00:01:53;290.13;;;134.45;;
78167;SDS011;67410;42.698;23.378;2024-01-06T00:04:19;247.10;;;125.32;;
78167;SDS011;67410;42.698;23.378;2024-01-06T00:06:45;249.35;;;126.70;;
78167;SDS011;67410;42.698;23.378;2024-01-06T00:09:11;269.13;;;128.45;;
78167;SDS011;67410;42.698;23.378;2024-01-06T00:11:37;233.10;;;119.65;;
78167;SDS011;67410;42.698;23.378;2024-01-06T00:14:03;230.15;;;114.43;;
78167;SDS011;67410;42.698;23.378;2024-01-06T00:16:30;238.02;;;117.32;;
78167;SDS011;67410;42.698;23.378;2024-01-06T00:18:56;243.20;;;118.45;;
78167;SDS011;67410;42.698;23.378;2024-01-06T00:21:22;228.52;;;111.05;;
78167;SDS011;67410;42.698;23.378;2024-01-06T00:23:49;222.80;;;113.07;;
78167;SDS011;67410;42.698;23.378;2024-01-06T00:26:15;222.93;;;110.75;;
78167;SDS011;67410;42.698;23.378;2024-01-06T00:28:41;213.15;;;109.30;;
78167;SDS011;67410;42.698;23.378;2024-01-06T00:31:07;187.45;;;99.88;;
78167;SDS011;67410;42.698;23.378;2024-01-06T00:33:34;180.50;;;93.50;;
78167;SDS011;67410;42.698;23.378;2024-01-06T00:36:00;175.45;;;91.10;;
78167;SDS011;67410;42.698;23.378;2024-01-06T00:38:26;153.50;;;79.35;;
78167;SDS011;67410;42.698;23.378;2024-01-06T00:40:52;140.50;;;73.03;;
78167;SDS011;67410;42.698;23.378;2024-01-06T00:43:18;136.38;;;67.15;;
78167;SDS011;67410;42.698;23.378;2024-01-06T00:45:44;123.28;;;66.15;;
78167;SDS011;67410;42.698;23.378;2024-01-06T00:48:10;119.53;;;61.22;;
78167;SDS011;67410;42.698;23.378;2024-01-06T00:50:36;118.22;;;60.33;;
78167;SDS011;67410;42.698;23.378;2024-01-06T00:53:03;110.20;;;58.30;;
78167;SDS011;67410;42.698;23.378;2024-01-06T00:55:29;106.03;;;58.65;;
78167;SDS011;67410;42.698;23.378;2024-01-06T00:57:55;119.50;;;60.08;;
78167;SDS011;67410;42.698;23.378;2024-01-06T01:00:21;113.85;;;57.60;;
78167;SDS011;67410;42.698;23.378;2024-01-06T01:02:48;144.45;;;66.28;;
78167;SDS011;67410;42.698;23.378;2024-01-06T01:05:14;141.80;;;66.80;;
78167;SDS011;67410;42.698;23.378;2024-01-06T01:07:40;120.05;;;62.85;;
78167;SDS011;67410;42.698;23.378;2024-01-06T01:10:06;131.02;;;64.97;;
78167;SDS011;67410;42.698;23.378;2024-01-06T01:12:32;121.85;;;61.42;;
78167;SDS011;67410;42.698;23.378;2024-01-06T01:14:59;128.05;;;65.10;;
78167;SDS011;67410;42.698;23.378;2024-01-06T01:17:25;134.73;;;66.50;;
78167;SDS011;67410;42.698;23.378;2024-01-06T01:19:51;126.43;;;65.93;;
78167;SDS011;67410;42.698;23.378;2024-01-06T01:22:17;153.45;;;76.13;;
78167;SDS011;67410;42.698;23.378;2024-01-06T01:24:43;172.00;;;83.47;;
78167;SDS011;67410;42.698;23.378;2024-01-06T01:27:09;146.90;;;73.65;;
78167;SDS011;67410;42.698;23.378;2024-01-06T01:29:35;148.30;;;71.38;;
78167;SDS011;67410;42.698;23.378;2024-01-06T01:32:01;154.93;;;75.95;;
78167;SDS011;67410;42.698;23.378;2024-01-06T01:34:28;144.18;;;69.60;;
78167;SDS011;67410;42.698;23.378;2024-01-06T01:36:54;151.63;;;73.18;;
78167;SDS011;67410;42.698;23.378;2024-01-06T01:39:20;148.43;;;74.13;;
78167;SDS011;67410;42.698;23.378;2024-01-06T01:41:46;135.00;;;68.55;;
78167;SDS011;67410;42.698;23.378;2024-01-06T01:44:12;186.15;;;83.90;;
78167;SDS011;67410;42.698;23.378;2024-01-06T01:46:38;135.55;;;68.72;;
78167;SDS011;67410;42.698;23.378;2024-01-06T01:49:05;158.88;;;82.28;;
78167;SDS011;67410;42.698;23.378;2024-01-06T01:51:32;155.38;;;75.78;;
78167;SDS011;67410;42.698;23.378;2024-01-06T01:54:03;138.63;;;71.88;;
78167;SDS011;67410;42.698;23.378;2024-01-06T01:56:33;162.77;;;77.88;;
78167;SDS011;67410;42.698;23.378;2024-01-06T01:59:04;181.43;;;88.40;;
78167;SDS011;67410;42.698;23.378;2024-01-06T02:01:33;216.25;;;103.00;;
78167;SDS011;67410;42.698;23.378;2024-01-06T02:04:00;188.18;;;93.95;;
78167;SDS011;67410;42.698;23.378;2024-01-06T02:06:26;202.43;;;98.35;;
78167;SDS011;67410;42.698;23.378;2024-01-06T02:08:53;191.00;;;92.35;;
78167;SDS011;67410;42.698;23.378;2024-01-06T02:11:19;199.55;;;96.10;;
78167;SDS011;67410;42.698;23.378;2024-01-06T02:13:45;187.07;;;89.22;;
78167;SDS011;67410;42.698;23.378;2024-01-06T02:16:12;183.10;;;87.10;;
78167;SDS011;67410;42.698;23.378;2024-01-06T02:18:38;189.18;;;91.28;;
78167;SDS011;67410;42.698;23.378;2024-01-06T02:21:04;185.63;;;85.72;;
78167;SDS011;67410;42.698;23.378;2024-01-06T02:23:34;169.85;;;80.88;;
78167;SDS011;67410;42.698;23.378;2024-01-06T02:26:02;159.88;;;79.63;;
78167;SDS011;67410;42.698;23.378;2024-01-06T02:28:29;148.55;;;76.05;;
78167;SDS011;67410;42.698;23.378;2024-01-06T02:30:55;181.27;;;87.53;;
78167;SDS011;67410;42.698;23.378;2024-01-06T02:33:21;181.30;;;90.35;;
78167;SDS011;67410;42.698;23.378;2024-01-06T02:35:49;169.88;;;85.18;;
78167;SDS011;67410;42.698;23.378;2024-01-06T02:38:15;158.20;;;79.22;;
78167;SDS011;67410;42.698;23.378;2024-01-06T02:40:41;150.32;;;75.90;;
78167;SDS011;67410;42.698;23.378;2024-01-06T02:43:08;136.38;;;69.03;;
78167;SDS011;67410;42.698;23.378;2024-01-06T02:45:35;136.50;;;69.95;;
78167;SDS011;67410;42.698;23.378;2024-01-06T02:48:01;132.65;;;67.20;;
78167;SDS011;67410;42.698;23.378;2024-01-06T02:50:27;123.72;;;63.53;;
78167;SDS011;67410;42.698;23.378;2024-01-06T02:52:53;131.43;;;66.85;;
78167;SDS011;67410;42.698;23.378;2024-01-06T02:55:19;123.75;;;62.45;;
78167;SDS011;67410;42.698;23.378;2024-01-06T02:57:45;118.82;;;61.97;;
78167;SDS011;67410;42.698;23.378;2024-01-06T03:00:12;114.18;;;60.03;;
78167;SDS011;67410;42.698;23.378;2024-01-06T03:02:41;128.63;;;69.88;;
78167;SDS011;67410;42.698;23.378;2024-01-06T03:05:08;118.95;;;62.72;;
78167;SDS011;67410;42.698;23.378;2024-01-06T03:07:36;117.05;;;55.13;;
78167;SDS011;67410;42.698;23.378;2024-01-06T03:10:02;105.18;;;54.42;;
78167;SDS011;67410;42.698;23.378;2024-01-06T03:12:28;104.75;;;52.95;;
78167;SDS011;67410;42.698;23.378;2024-01-06T03:14:54;107.15;;;56.55;;
78167;SDS011;67410;42.698;23.378;2024-01-06T03:17:20;99.05;;;51.15;;
78167;SDS011;67410;42.698;23.378;2024-01-06T03:19:46;98.40;;;49.10;;
78167;SDS011;67410;42.698;23.378;2024-01-06T03:22:12;102.68;;;54.45;;
78167;SDS011;67410;42.698;23.378;2024-01-06T03:24:39;105.38;;;53.58;;
78167;SDS011;67410;42.698;23.378;2024-01-06T03:27:05;115.20;;;58.35;;
78167;SDS011;67410;42.698;23.378;2024-01-06T03:29:32;111.85;;;59.58;;
78167;SDS011;67410;42.698;23.378;2024-01-06T03:31:58;120.20;;;63.53;;
78167;SDS011;67410;42.698;23.378;2024-01-06T03:34:24;114.78;;;59.38;;
78167;SDS011;67410;42.698;23.378;2024-01-06T03:36:50;111.10;;;55.90;;
78167;SDS011;67410;42.698;23.378;2024-01-06T03:39:16;105.40;;;55.22;;
78167;SDS011;67410;42.698;23.378;2024-01-06T03:41:42;105.05;;;56.75;;
78167;SDS011;67410;42.698;23.378;2024-01-06T03:44:08;100.28;;;52.53;;
78167;SDS011;67410;42.698;23.378;2024-01-06T03:46:34;109.72;;;56.63;;
78167;SDS011;67410;42.698;23.378;2024-01-06T03:49:01;111.20;;;58.85;;
78167;SDS011;67410;42.698;23.378;2024-01-06T03:51:27;113.15;;;57.75;;
78167;SDS011;67410;42.698;23.378;2024-01-06T03:53:53;118.85;;;59.75;;
78167;SDS011;67410;42.698;23.378;2024-01-06T03:56:20;148.20;;;75.80;;
78167;SDS011;67410;42.698;23.378;2024-01-06T03:58:46;116.47;;;60.95;;
78167;SDS011;67410;42.698;23.378;2024-01-06T04:01:12;114.82;;;61.78;;
78167;SDS011;67410;42.698;23.378;2024-01-06T04:03:38;118.90;;;64.00;;
78167;SDS011;67410;42.698;23.378;2024-01-06T04:06:08;132.18;;;65.60;;
78167;SDS011;67410;42.698;23.378;2024-01-06T04:08:41;113.72;;;60.78;;
78167;SDS011;67410;42.698;23.378;2024-01-06T04:11:08;120.25;;;64.15;;
78167;SDS011;67410;42.698;23.378;2024-01-06T04:13:34;120.28;;;64.32;;
78167;SDS011;67410;42.698;23.378;2024-01-06T04:16:00;129.95;;;68.63;;
78167;SDS011;67410;42.698;23.378;2024-01-06T04:18:26;142.25;;;77.68;;
78167;SDS011;67410;42.698;23.378;2024-01-06T04:20:52;147.75;;;75.22;;
78167;SDS011;67410;42.698;23.378;2024-01-06T04:23:18;126.93;;;69.30;;
78167;SDS011;67410;42.698;23.378;2024-01-06T04:25:44;145.93;;;75.80;;
78167;SDS011;67410;42.698;23.378;2024-01-06T04:28:10;201.80;;;94.45;;
78167;SDS011;67410;42.698;23.378;2024-01-06T04:30:36;176.23;;;89.57;;
78167;SDS011;67410;42.698;23.378;2024-01-06T04:33:02;176.43;;;85.75;;
78167;SDS011;67410;42.698;23.378;2024-01-06T04:35:29;188.73;;;90.07;;
78167;SDS011;67410;42.698;23.378;2024-01-06T04:37:55;184.55;;;86.80;;
78167;SDS011;67410;42.698;23.378;2024-01-06T04:40:21;163.93;;;81.28;;
78167;SDS011;67410;42.698;23.378;2024-01-06T04:42:47;166.15;;;81.53;;
78167;SDS011;67410;42.698;23.378;2024-01-06T04:45:13;171.05;;;86.45;;
78167;SDS011;67410;42.698;23.378;2024-01-06T04:47:39;207.63;;;97.20;;
78167;SDS011;67410;42.698;23.378;2024-01-06T04:50:05;155.35;;;80.05;;
78167;SDS011;67410;42.698;23.378;2024-01-06T04:52:31;122.70;;;68.15;;
78167;SDS011;67410;42.698;23.378;2024-01-06T04:54:58;138.25;;;75.03;;
78167;SDS011;67410;42.698;23.378;2024-01-06T04:57:24;122.13;;;66.28;;
78167;SDS011;67410;42.698;23.378;2024-01-06T04:59:50;116.72;;;62.72;;
78167;SDS011;67410;42.698;23.378;2024-01-06T05:02:16;120.63;;;62.83;;
78167;SDS011;67410;42.698;23.378;2024-01-06T05:04:42;124.32;;;65.88;;
78167;SDS011;67410;42.698;23.378;2024-01-06T05:07:08;112.28;;;61.35;;
78167;SDS011;67410;42.698;23.378;2024-01-06T05:09:34;119.25;;;67.28;;
78167;SDS011;67410;42.698;23.378;2024-01-06T05:12:00;112.93;;;64.18;;
78167;SDS011;67410;42.698;23.378;2024-01-06T05:14:26;127.22;;;66.57;;
78167;SDS011;67410;42.698;23.378;2024-01-06T05:16:52;121.63;;;62.50;;
78167;SDS011;67410;42.698;23.378;2024-01-06T05:19:18;123.10;;;65.15;;
78167;SDS011;67410;42.698;23.378;2024-01-06T05:21:46;130.90;;;67.00;;
78167;SDS011;67410;42.698;23.378;2024-01-06T05:24:13;119.43;;;64.40;;
78167;SDS011;67410;42.698;23.378;2024-01-06T05:26:39;135.35;;;67.93;;
78167;SDS011;67410;42.698;23.378;2024-01-06T05:29:06;134.00;;;68.32;;
78167;SDS011;67410;42.698;23.378;2024-01-06T05:31:32;129.73;;;70.90;;
78167;SDS011;67410;42.698;23.378;2024-01-06T05:33:58;136.10;;;71.22;;
78167;SDS011;67410;42.698;23.378;2024-01-06T05:36:24;145.02;;;72.57;;
78167;SDS011;67410;42.698;23.378;2024-01-06T05:38:50;143.02;;;73.40;;
78167;SDS011;67410;42.698;23.378;2024-01-06T05:41:16;147.70;;;79.03;;
78167;SDS011;67410;42.698;23.378;2024-01-06T05:43:42;150.25;;;81.15;;
78167;SDS011;67410;42.698;23.378;2024-01-06T05:46:08;143.90;;;75.80;;
78167;SDS011;67410;42.698;23.378;2024-01-06T05:48:36;140.70;;;75.13;;
78167;SDS011;67410;42.698;23.378;2024-01-06T05:51:06;140.00;;;73.80;;
78167;SDS011;67410;42.698;23.378;2024-01-06T05:53:32;135.40;;;70.05;;
78167;SDS011;67410;42.698;23.378;2024-01-06T05:55:58;100.80;;;48.90;;
78167;SDS011;67410;42.698;23.378;2024-01-06T05:58:24;86.68;;;42.70;;
78167;SDS011;67410;42.698;23.378;2024-01-06T06:00:50;68.38;;;35.28;;
78167;SDS011;67410;42.698;23.378;2024-01-06T06:03:16;49.17;;;25.98;;
78167;SDS011;67410;42.698;23.378;2024-01-06T06:05:42;51.28;;;24.77;;
78167;SDS011;67410;42.698;23.378;2024-01-06T06:08:08;33.13;;;17.42;;
78167;SDS011;67410;42.698;23.378;2024-01-06T06:10:34;64.22;;;28.98;;
78167;SDS011;67410;42.698;23.378;2024-01-06T06:13:17;54.45;;;26.23;;
78167;SDS011;67410;42.698;23.378;2024-01-06T06:15:43;46.90;;;25.35;;
78167;SDS011;67410;42.698;23.378;2024-01-06T06:18:09;56.45;;;30.42;;
78167;SDS011;67410;42.698;23.378;2024-01-06T06:20:35;76.03;;;38.88;;
78167;SDS011;67410;42.698;23.378;2024-01-06T06:23:01;64.53;;;33.55;;
78167;SDS011;67410;42.698;23.378;2024-01-06T06:25:27;71.88;;;34.25;;
78167;SDS011;67410;42.698;23.378;2024-01-06T06:27:53;78.03;;;39.38;;
78167;SDS011;67410;42.698;23.378;2024-01-06T06:30:19;74.38;;;36.35;;
78167;SDS011;67410;42.698;23.378;2024-01-06T06:32:45;74.10;;;37.83;;
78167;SDS011;67410;42.698;23.378;2024-01-06T06:35:13;71.45;;;35.47;;
78167;SDS011;67410;42.698;23.378;2024-01-06T06:37:40;76.65;;;38.50;;
78167;SDS011;67410;42.698;23.378;2024-01-06T06:40:06;190.30;;;82.78;;
78167;SDS011;67410;42.698;23.378;2024-01-06T06:42:33;129.65;;;61.45;;
78167;SDS011;67410;42.698;23.378;2024-01-06T06:44:59;110.35;;;51.30;;
78167;SDS011;67410;42.698;23.378;2024-01-06T06:47:25;125.40;;;54.13;;
78167;SDS011;67410;42.698;23.378;2024-01-06T06:49:51;89.85;;;45.10;;
78167;SDS011;67410;42.698;23.378;2024-01-06T06:52:17;122.88;;;56.65;;
78167;SDS011;67410;42.698;23.378;2024-01-06T06:54:43;141.02;;;65.70;;
78167;SDS011;67410;42.698;23.378;2024-01-06T06:57:09;94.30;;;46.53;;
78167;SDS011;67410;42.698;23.378;2024-01-06T06:59:35;85.57;;;44.20;;
78167;SDS011;67410;42.698;23.378;2024-01-06T07:02:01;81.85;;;41.70;;
78167;SDS011;67410;42.698;23.378;2024-01-06T07:04:27;121.93;;;58.72;;
78167;SDS011;67410;42.698;23.378;2024-01-06T07:06:53;89.75;;;45.50;;
78167;SDS011;67410;42.698;23.378;2024-01-06T07:09:20;111.88;;;59.53;;
78167;SDS011;67410;42.698;23.378;2024-01-06T07:11:48;103.30;;;55.35;;
78167;SDS011;67410;42.698;23.378;2024-01-06T07:14:14;117.70;;;60.78;;
78167;SDS011;67410;42.698;23.378;2024-01-06T07:16:41;96.53;;;50.20;;
78167;SDS011;67410;42.698;23.378;2024-01-06T07:19:07;85.88;;;47.03;;
78167;SDS011;67410;42.698;23.378;2024-01-06T07:21:33;86.78;;;43.50;;
78167;SDS011;67410;42.698;23.378;2024-01-06T07:23:59;97.05;;;51.55;;
78167;SDS011;67410;42.698;23.378;2024-01-06T07:26:27;88.15;;;45.17;;
78167;SDS011;67410;42.698;23.378;2024-01-06T07:28:53;85.35;;;48.50;;
78167;SDS011;67410;42.698;23.378;2024-01-06T07:31:19;91.70;;;52.55;;
78167;SDS011;67410;42.698;23.378;2024-01-06T07:33:45;96.63;;;52.75;;
78167;SDS011;67410;42.698;23.378;2024-01-06T07:36:11;86.25;;;50.40;;
78167;SDS011;67410;42.698;23.378;2024-01-06T07:38:37;95.80;;;48.05;;
78167;SDS011;67410;42.698;23.378;2024-01-06T07:41:03;91.60;;;47.80;;
78167;SDS011;67410;42.698;23.378;2024-01-06T07:43:32;106.25;;;58.85;;
78167;SDS011;67410;42.698;23.378;2024-01-06T07:45:59;92.70;;;49.80;;
78167;SDS011;67410;42.698;23.378;2024-01-06T07:48:25;100.90;;;53.78;;
78167;SDS011;67410;42.698;23.378;2024-01-06T07:50:51;89.40;;;49.75;;
78167;SDS011;67410;42.698;23.378;2024-01-06T07:53:17;128.65;;;68.13;;
78167;SDS011;67410;42.698;23.378;2024-01-06T07:55:43;108.75;;;56.80;;
78167;SDS011;67410;42.698;23.378;2024-01-06T07:58:09;94.85;;;48.70;;
78167;SDS011;67410;42.698;23.378;2024-01-06T08:00:37;93.65;;;47.85;;
78167;SDS011;67410;42.698;23.378;2024-01-06T08:03:03;74.93;;;39.70;;
78167;SDS011;67410;42.698;23.378;2024-01-06T08:05:31;82.55;;;42.10;;
78167;SDS011;67410;42.698;23.378;2024-01-06T08:07:58;83.68;;;42.42;;
78167;SDS011;67410;42.698;23.378;2024-01-06T08:10:24;64.88;;;36.33;;
78167;SDS011;67410;42.698;23.378;2024-01-06T08:12:50;64.55;;;33.42;;
78167;SDS011;67410;42.698;23.378;2024-01-06T08:15:16;65.35;;;36.65;;
78167;SDS011;67410;42.698;23.378;2024-01-06T08:17:42;82.53;;;40.35;;
78167;SDS011;67410;42.698;23.378;2024-01-06T08:20:09;58.08;;;31.42;;
78167;SDS011;67410;42.698;23.378;2024-01-06T08:22:35;85.60;;;43.42;;
78167;SDS011;67410;42.698;23.378;2024-01-06T08:25:01;113.93;;;51.67;;
78167;SDS011;67410;42.698;23.378;2024-01-06T08:27:28;108.80;;;51.33;;
78167;SDS011;67410;42.698;23.378;2024-01-06T08:29:54;109.18;;;46.58;;
78167;SDS011;67410;42.698;23.378;2024-01-06T08:32:20;66.18;;;30.40;;
78167;SDS011;67410;42.698;23.378;2024-01-06T08:34:46;64.28;;;29.45;;
78167;SDS011;67410;42.698;23.378;2024-01-06T08:37:12;69.20;;;29.35;;
78167;SDS011;67410;42.698;23.378;2024-01-06T08:39:39;57.33;;;26.02;;
78167;SDS011;67410;42.698;23.378;2024-01-06T08:42:06;42.67;;;23.15;;
78167;SDS011;67410;42.698;23.378;2024-01-06T08:44:32;58.40;;;29.10;;
78167;SDS011;67410;42.698;23.378;2024-01-06T08:46:58;55.00;;;30.10;;
78167;SDS011;67410;42.698;23.378;2024-01-06T08:49:24;77.85;;;36.97;;
78167;SDS011;67410;42.698;23.378;2024-01-06T08:51:51;102.88;;;43.42;;
78167;SDS011;67410;42.698;23.378;2024-01-06T08:54:17;61.08;;;32.17;;
78167;SDS011;67410;42.698;23.378;2024-01-06T08:56:43;68.00;;;33.45;;
78167;SDS011;67410;42.698;23.378;2024-01-06T08:59:09;65.07;;;33.42;;
78167;SDS011;67410;42.698;23.378;2024-01-06T09:01:35;59.45;;;33.70;;
78167;SDS011;67410;42.698;23.378;2024-01-06T09:04:02;68.05;;;34.35;;
78167;SDS011;67410;42.698;23.378;2024-01-06T09:06:29;59.35;;;29.80;;
78167;SDS011;67410;42.698;23.378;2024-01-06T09:08:55;76.82;;;37.97;;
78167;SDS011;67410;42.698;23.378;2024-01-06T09:11:21;62.47;;;32.35;;
78167;SDS011;67410;42.698;23.378;2024-01-06T09:13:47;72.00;;;34.72;;
78167;SDS011;67410;42.698;23.378;2024-01-06T09:16:13;63.20;;;30.67;;
78167;SDS011;67410;42.698;23.378;2024-01-06T09:18:39;63.85;;;33.40;;
78167;SDS011;67410;42.698;23.378;2024-01-06T09:21:05;54.58;;;27.30;;
78167;SDS011;67410;42.698;23.378;2024-01-06T09:23:32;61.35;;;29.77;;
78167;SDS011;67410;42.698;23.378;2024-01-06T09:25:58;57.15;;;29.88;;
78167;SDS011;67410;42.698;23.378;2024-01-06T09:28:25;58.67;;;28.85;;
78167;SDS011;67410;42.698;23.378;2024-01-06T09:30:51;56.15;;;27.33;;
78167;SDS011;67410;42.698;23.378;2024-01-06T09:33:20;82.57;;;39.28;;
78167;SDS011;67410;42.698;23.378;2024-01-06T09:35:46;68.75;;;30.20;;
78167;SDS011;67410;42.698;23.378;2024-01-06T09:38:13;56.13;;;28.65;;
78167;SDS011;67410;42.698;23.378;2024-01-06T09:40:41;48.75;;;24.73;;
78167;SDS011;67410;42.698;23.378;2024-01-06T09:43:09;58.90;;;26.20;;
78167;SDS011;67410;42.698;23.378;2024-01-06T09:45:38;71.63;;;33.95;;
78167;SDS011;67410;42.698;23.378;2024-01-06T09:48:11;64.55;;;29.83;;
78167;SDS011;67410;42.698;23.378;2024-01-06T09:50:41;45.60;;;23.25;;
78167;SDS011;67410;42.698;23.378;2024-01-06T09:53:13;46.85;;;23.98;;
78167;SDS011;67410;42.698;23.378;2024-01-06T09:55:39;40.20;;;21.65;;
78167;SDS011;67410;42.698;23.378;2024-01-06T09:58:05;40.97;;;18.45;;
78167;SDS011;67410;42.698;23.378;2024-01-06T10:00:32;33.50;;;16.98;;
78167;SDS011;67410;42.698;23.378;2024-01-06T10:02:58;42.90;;;20.42;;
78167;SDS011;67410;42.698;23.378;2024-01-06T10:05:24;38.67;;;17.77;;
78167;SDS011;67410;42.698;23.378;2024-01-06T10:07:52;58.25;;;23.85;;
78167;SDS011;67410;42.698;23.378;2024-01-06T10:10:18;31.17;;;15.32;;
78167;SDS011;67410;42.698;23.378;2024-01-06T10:12:45;22.23;;;13.23;;
78167;SDS011;67410;42.698;23.378;2024-01-06T10:15:12;38.35;;;18.00;;
78167;SDS011;67410;42.698;23.378;2024-01-06T10:17:41;49.60;;;21.02;;
78167;SDS011;67410;42.698;23.378;2024-01-06T10:20:08;39.58;;;19.38;;
78167;SDS011;67410;42.698;23.378;2024-01-06T10:22:36;48.95;;;18.00;;
78167;SDS011;67410;42.698;23.378;2024-01-06T10:25:05;37.67;;;17.60;;
78167;SDS011;67410;42.698;23.378;2024-01-06T10:27:33;38.45;;;17.90;;
78167;SDS011;67410;42.698;23.378;2024-01-06T10:30:01;43.25;;;22.90;;
78167;SDS011;67410;42.698;23.378;2024-01-06T10:32:30;45.40;;;19.13;;
78167;SDS011;67410;42.698;23.378;2024-01-06T10:34:57;38.20;;;17.77;;
78167;SDS011;67410;42.698;23.378;2024-01-06T10:37:24;39.28;;;19.92;;
78167;SDS011;67410;42.698;23.378;2024-01-06T10:42:39;29.90;;;15.30;;
78167;SDS011;67410;42.698;23.378;2024-01-06T10:45:08;25.55;;;13.77;;
78167;SDS011;67410;42.698;23.378;2024-01-06T10:47:36;47.13;;;21.67;;
78167;SDS011;67410;42.698;23.378;2024-01-06T10:50:03;49.72;;;22.35;;
78167;SDS011;67410;42.698;23.378;2024-01-06T10:52:30;34.65;;;18.20;;
78167;SDS011;67410;42.698;23.378;2024-01-06T10:55:00;36.35;;;17.63;;
78167;SDS011;67410;42.698;23.378;2024-01-06T10:57:28;31.20;;;15.85;;
78167;SDS011;67410;42.698;23.378;2024-01-06T10:59:58;33.90;;;18.00;;
78167;SDS011;67410;42.698;23.378;2024-01-06T11:02:25;21.67;;;10.45;;
78167;SDS011;67410;42.698;23.378;2024-01-06T11:04:52;31.10;;;15.68;;
78167;SDS011;67410;42.698;23.378;2024-01-06T11:07:19;19.25;;;8.93;;
78167;SDS011;67410;42.698;23.378;2024-01-06T11:09:49;13.00;;;8.02;;
78167;SDS011;67410;42.698;23.378;2024-01-06T11:12:19;12.80;;;7.00;;
78167;SDS011;67410;42.698;23.378;2024-01-06T11:14:46;15.80;;;8.05;;
78167;SDS011;67410;42.698;23.378;2024-01-06T11:17:12;15.68;;;7.20;;
78167;SDS011;67410;42.698;23.378;2024-01-06T11:22:18;16.50;;;9.95;;
78167;SDS011;67410;42.698;23.378;2024-01-06T11:24:48;12.68;;;8.55;;
78167;SDS011;67410;42.698;23.378;2024-01-06T11:27:21;17.40;;;10.63;;
78167;SDS011;67410;42.698;23.378;2024-01-06T11:29:55;21.45;;;10.15;;
78167;SDS011;67410;42.698;23.378;2024-01-06T11:32:29;18.77;;;10.27;;
78167;SDS011;67410;42.698;23.378;2024-01-06T11:35:15;15.82;;;9.52;;
78167;SDS011;67410;42.698;23.378;2024-01-06T11:42:46;18.15;;;9.35;;
78167;SDS011;67410;42.698;23.378;2024-01-06T11:45:14;18.23;;;8.95;;
78167;SDS011;67410;42.698;23.378;2024-01-06T11:47:47;17.90;;;9.88;;
78167;SDS011;67410;42.698;23.378;2024-01-06T11:50:14;12.50;;;6.85;;
78167;SDS011;67410;42.698;23.378;2024-01-06T11:52:42;14.55;;;7.75;;
78167;SDS011;67410;42.698;23.378;2024-01-06T11:55:08;18.27;;;8.15;;
78167;SDS011;67410;42.698;23.378;2024-01-06T11:57:35;16.88;;;9.98;;
78167;SDS011;67410;42.698;23.378;2024-01-06T12:00:01;20.60;;;10.65;;
78167;SDS011;67410;42.698;23.378;2024-01-06T12:02:29;15.00;;;7.93;;
78167;SDS011;67410;42.698;23.378;2024-01-06T12:04:56;16.30;;;8.05;;
78167;SDS011;67410;42.698;23.378;2024-01-06T12:07:22;14.75;;;8.27;;
78167;SDS011;67410;42.698;23.378;2024-01-06T12:09:48;17.92;;;8.48;;
78167;SDS011;67410;42.698;23.378;2024-01-06T12:12:15;17.58;;;8.90;;
78167;SDS011;67410;42.698;23.378;2024-01-06T12:14:42;17.58;;;9.55;;
78167;SDS011;67410;42.698;23.378;2024-01-06T12:17:09;15.02;;;9.18;;
78167;SDS011;67410;42.698;23.378;2024-01-06T12:19:35;19.63;;;10.05;;
78167;SDS011;67410;42.698;23.378;2024-01-06T12:22:02;18.13;;;8.90;;
78167;SDS011;67410;42.698;23.378;2024-01-06T12:24:28;26.00;;;10.52;;
78167;SDS011;67410;42.698;23.378;2024-01-06T12:26:55;28.38;;;13.82;;
78167;SDS011;67410;42.698;23.378;2024-01-06T12:29:26;23.70;;;12.50;;
78167;SDS011;67410;42.698;23.378;2024-01-06T12:31:54;27.15;;;14.40;;
78167;SDS011;67410;42.698;23.378;2024-01-06T12:34:21;33.70;;;16.40;;
78167;SDS011;67410;42.698;23.378;2024-01-06T12:36:48;23.67;;;10.27;;
78167;SDS011;67410;42.698;23.378;2024-01-06T12:39:18;18.60;;;9.25;;
78167;SDS011;67410;42.698;23.378;2024-01-06T12:41:44;20.38;;;9.35;;
78167;SDS011;67410;42.698;23.378;2024-01-06T12:44:11;20.23;;;10.50;;
78167;SDS011;67410;42.698;23.378;2024-01-06T12:46:38;25.38;;;10.85;;
78167;SDS011;67410;42.698;23.378;2024-01-06T12:49:04;20.25;;;10.77;;
78167;SDS011;67410;42.698;23.378;2024-01-06T12:51:30;31.27;;;13.60;;
78167;SDS011;67410;42.698;23.378;2024-01-06T12:53:56;31.45;;;15.30;;
78167;SDS011;67410;42.698;23.378;2024-01-06T12:56:22;32.13;;;14.77;;
78167;SDS011;67410;42.698;23.378;2024-01-06T12:58:50;27.50;;;13.45;;
78167;SDS011;67410;42.698;23.378;2024-01-06T13:01:16;36.97;;;16.15;;
78167;SDS011;67410;42.698;23.378;2024-01-06T13:03:43;39.35;;;20.10;;
78167;SDS011;67410;42.698;23.378;2024-01-06T13:06:09;35.47;;;16.42;;
78167;SDS011;67410;42.698;23.378;2024-01-06T13:08:35;35.95;;;17.25;;
78167;SDS011;67410;42.698;23.378;2024-01-06T13:11:02;40.17;;;21.95;;
78167;SDS011;67410;42.698;23.378;2024-01-06T13:13:28;37.55;;;21.42;;
78167;SDS011;67410;42.698;23.378;2024-01-06T13:15:57;34.40;;;18.27;;
78167;SDS011;67410;42.698;23.378;2024-01-06T13:18:23;30.50;;;16.95;;
78167;SDS011;67410;42.698;23.378;2024-01-06T13:20:49;28.65;;;16.42;;
78167;SDS011;67410;42.698;23.378;2024-01-06T13:23:15;26.38;;;14.00;;
78167;SDS011;67410;42.698;23.378;2024-01-06T13:25:41;26.52;;;14.05;;
78167;SDS011;67410;42.698;23.378;2024-01-06T13:28:07;38.30;;;19.20;;
78167;SDS011;67410;42.698;23.378;2024-01-06T13:30:34;26.58;;;15.45;;
78167;SDS011;67410;42.698;23.378;2024-01-06T13:33:00;18.50;;;9.75;;
78167;SDS011;67410;42.698;23.378;2024-01-06T13:35:26;13.95;;;6.47;;
78167;SDS011;67410;42.698;23.378;2024-01-06T13:37:52;10.93;;;6.72;;
78167;SDS011;67410;42.698;23.378;2024-01-06T13:40:19;15.63;;;5.63;;
78167;SDS011;67410;42.698;23.378;2024-01-06T13:42:49;15.77;;;7.55;;
78167;SDS011;67410;42.698;23.378;2024-01-06T13:45:19;11.40;;;6.72;;
78167;SDS011;67410;42.698;23.378;2024-01-06T13:47:45;10.95;;;6.60;;
78167;SDS011;67410;42.698;23.378;2024-01-06T13:50:12;12.13;;;6.38;;
78167;SDS011;67410;42.698;23.378;2024-01-06T13:52:39;19.73;;;10.25;;
78167;SDS011;67410;42.698;23.378;2024-01-06T13:55:05;23.30;;;13.90;;
78167;SDS011;67410;42.698;23.378;2024-01-06T13:57:32;22.48;;;13.48;;
78167;SDS011;67410;42.698;23.378;2024-01-06T13:59:58;23.08;;;12.07;;
78167;SDS011;67410;42.698;23.378;2024-01-06T14:02:24;18.90;;;8.65;;
78167;SDS011;67410;42.698;23.378;2024-01-06T14:04:51;14.95;;;9.15;;
78167;SDS011;67410;42.698;23.378;2024-01-06T14:07:17;44.08;;;19.15;;
78167;SDS011;67410;42.698;23.378;2024-01-06T14:09:48;32.65;;;14.18;;
78167;SDS011;67410;42.698;23.378;2024-01-06T14:12:14;29.85;;;13.45;;